sensor_id;sensor_type;location;lat;lon;timestamp;P1;durP1;ratioP1;P2;durP2;ratioP2
59054;SDS011;44845;51.444;7.460;2023-08-08T00:00:41;3.08;;;1.15;;
59054;SDS011;44845;51.444;7.460;2023-08-08T00:03:06;3.25;;;1.10;;
59054;SDS011;44845;51.444;7.460;2023-08-08T00:05:33;3.58;;;1.30;;
59054;SDS011;44845;51.444;7.460;2023-08-08T00:07:59;4.20;;;0.77;;
59054;SDS011;44845;51.444;7.460;2023-08-08T00:10:24;0.85;;;0.73;;
59054;SDS011;44845;51.444;7.460;2023-08-08T00:12:49;4.32;;;1.20;;
59054;SDS011;44845;51.444;7.460;2023-08-08T00:15:15;2.03;;;0.90;;
59054;SDS011;44845;51.444;7.460;2023-08-08T00:17:40;2.30;;;0.98;;
59054;SDS011;44845;51.444;7.460;2023-08-08T00:20:06;4.10;;;1.02;;
59054;SDS011;44845;51.444;7.460;2023-08-08T00:22:32;3.85;;;1.30;;
59054;SDS011;44845;51.444;7.460;2023-08-08T00:24:57;3.70;;;1.25;;
59054;SDS011;44845;51.444;7.460;2023-08-08T00:27:23;6.30;;;1.50;;
59054;SDS011;44845;51.444;7.460;2023-08-08T00:29:48;6.43;;;1.40;;
59054;SDS011;44845;51.444;7.460;2023-08-08T00:32:15;3.63;;;1.02;;
59054;SDS011;44845;51.444;7.460;2023-08-08T00:34:41;1.13;;;0.73;;
59054;SDS011;44845;51.444;7.460;2023-08-08T00:37:06;2.60;;;1.10;;
59054;SDS011;44845;51.444;7.460;2023-08-08T00:39:31;7.18;;;1.10;;
59054;SDS011;44845;51.444;7.460;2023-08-08T00:41:57;7.68;;;1.38;;
59054;SDS011;44845;51.444;7.460;2023-08-08T00:44:22;4.50;;;1.00;;
59054;SDS011;44845;51.444;7.460;2023-08-08T00:46:47;6.53;;;1.10;;
59054;SDS011;44845;51.444;7.460;2023-08-08T00:49:13;2.90;;;1.05;;
59054;SDS011;44845;51.444;7.460;2023-08-08T00:51:38;2.80;;;0.80;;
59054;SDS011;44845;51.444;7.460;2023-08-08T00:54:04;3.85;;;1.23;;
59054;SDS011;44845;51.444;7.460;2023-08-08T00:56:30;5.25;;;1.17;;
59054;SDS011;44845;51.444;7.460;2023-08-08T00:58:56;3.50;;;1.55;;
59054;SDS011;44845;51.444;7.460;2023-08-08T01:01:22;6.35;;;1.08;;
59054;SDS011;44845;51.444;7.460;2023-08-08T01:03:47;2.40;;;1.10;;
59054;SDS011;44845;51.444;7.460;2023-08-08T01:06:22;3.33;;;1.00;;
59054;SDS011;44845;51.444;7.460;2023-08-08T01:08:57;3.67;;;1.50;;
59054;SDS011;44845;51.444;7.460;2023-08-08T01:11:26;2.53;;;0.85;;
59054;SDS011;44845;51.444;7.460;2023-08-08T01:13:54;5.20;;;1.35;;
59054;SDS011;44845;51.444;7.460;2023-08-08T01:16:20;1.60;;;1.00;;
59054;SDS011;44845;51.444;7.460;2023-08-08T01:18:47;2.17;;;1.20;;
59054;SDS011;44845;51.444;7.460;2023-08-08T01:21:14;1.48;;;0.95;;
59054;SDS011;44845;51.444;7.460;2023-08-08T01:26:21;1.60;;;1.00;;
59054;SDS011;44845;51.444;7.460;2023-08-08T01:28:47;2.05;;;1.20;;
59054;SDS011;44845;51.444;7.460;2023-08-08T01:31:12;3.70;;;1.00;;
59054;SDS011;44845;51.444;7.460;2023-08-08T01:33:38;4.45;;;1.08;;
59054;SDS011;44845;51.444;7.460;2023-08-08T01:36:27;2.65;;;1.20;;
59054;SDS011;44845;51.444;7.460;2023-08-08T01:39:17;4.50;;;1.10;;
59054;SDS011;44845;51.444;7.460;2023-08-08T01:41:44;1.63;;;0.90;;
59054;SDS011;44845;51.444;7.460;2023-08-08T01:44:12;6.60;;;1.20;;
59054;SDS011;44845;51.444;7.460;2023-08-08T01:46:38;5.55;;;1.25;;
59054;SDS011;44845;51.444;7.460;2023-08-08T01:49:04;1.75;;;1.20;;
59054;SDS011;44845;51.444;7.460;2023-08-08T01:51:29;5.57;;;1.13;;
59054;SDS011;44845;51.444;7.460;2023-08-08T01:53:55;2.70;;;1.17;;
59054;SDS011;44845;51.444;7.460;2023-08-08T01:56:21;4.10;;;1.35;;
59054;SDS011;44845;51.444;7.460;2023-08-08T01:58:46;5.43;;;1.30;;
59054;SDS011;44845;51.444;7.460;2023-08-08T02:01:11;3.90;;;1.02;;
59054;SDS011;44845;51.444;7.460;2023-08-08T02:03:37;1.95;;;0.90;;
59054;SDS011;44845;51.444;7.460;2023-08-08T02:06:02;8.25;;;1.52;;
59054;SDS011;44845;51.444;7.460;2023-08-08T02:08:27;3.20;;;1.05;;
59054;SDS011;44845;51.444;7.460;2023-08-08T02:10:53;3.47;;;1.65;;
59054;SDS011;44845;51.444;7.460;2023-08-08T02:13:18;2.78;;;1.10;;
59054;SDS011;44845;51.444;7.460;2023-08-08T02:15:43;2.95;;;1.15;;
59054;SDS011;44845;51.444;7.460;2023-08-08T02:18:09;2.97;;;1.20;;
59054;SDS011;44845;51.444;7.460;2023-08-08T02:20:36;2.83;;;1.13;;
59054;SDS011;44845;51.444;7.460;2023-08-08T02:23:01;3.10;;;1.23;;
59054;SDS011;44845;51.444;7.460;2023-08-08T02:25:27;7.70;;;1.27;;
59054;SDS011;44845;51.444;7.460;2023-08-08T02:27:52;3.08;;;0.88;;
59054;SDS011;44845;51.444;7.460;2023-08-08T02:30:17;2.67;;;1.13;;
59054;SDS011;44845;51.444;7.460;2023-08-08T02:32:43;4.10;;;1.23;;
59054;SDS011;44845;51.444;7.460;2023-08-08T02:35:08;5.00;;;1.20;;
59054;SDS011;44845;51.444;7.460;2023-08-08T02:37:34;3.83;;;1.38;;
59054;SDS011;44845;51.444;7.460;2023-08-08T02:39:59;6.75;;;1.15;;
59054;SDS011;44845;51.444;7.460;2023-08-08T02:42:25;3.83;;;1.10;;
59054;SDS011;44845;51.444;7.460;2023-08-08T02:44:50;2.10;;;1.08;;
59054;SDS011;44845;51.444;7.460;2023-08-08T02:47:15;7.50;;;1.23;;
59054;SDS011;44845;51.444;7.460;2023-08-08T02:49:41;4.10;;;1.20;;
59054;SDS011;44845;51.444;7.460;2023-08-08T02:52:06;5.15;;;1.40;;
59054;SDS011;44845;51.444;7.460;2023-08-08T02:54:32;3.63;;;1.10;;
59054;SDS011;44845;51.444;7.460;2023-08-08T02:56:57;5.75;;;1.42;;
59054;SDS011;44845;51.444;7.460;2023-08-08T02:59:22;3.38;;;1.15;;
59054;SDS011;44845;51.444;7.460;2023-08-08T03:01:48;4.20;;;1.20;;
59054;SDS011;44845;51.444;7.460;2023-08-08T03:04:14;1.80;;;1.00;;
59054;SDS011;44845;51.444;7.460;2023-08-08T03:06:40;3.58;;;1.40;;
59054;SDS011;44845;51.444;7.460;2023-08-08T03:09:05;3.60;;;1.35;;
59054;SDS011;44845;51.444;7.460;2023-08-08T03:11:30;6.05;;;1.70;;
59054;SDS011;44845;51.444;7.460;2023-08-08T03:13:56;3.60;;;1.50;;
59054;SDS011;44845;51.444;7.460;2023-08-08T03:16:21;3.17;;;1.33;;
59054;SDS011;44845;51.444;7.460;2023-08-08T03:18:46;5.85;;;1.15;;
59054;SDS011;44845;51.444;7.460;2023-08-08T03:21:12;7.93;;;1.50;;
59054;SDS011;44845;51.444;7.460;2023-08-08T03:23:37;3.17;;;1.50;;
59054;SDS011;44845;51.444;7.460;2023-08-08T03:26:03;1.95;;;1.10;;
59054;SDS011;44845;51.444;7.460;2023-08-08T03:28:28;2.45;;;1.10;;
59054;SDS011;44845;51.444;7.460;2023-08-08T03:30:54;5.65;;;1.25;;
59054;SDS011;44845;51.444;7.460;2023-08-08T03:33:19;6.97;;;1.60;;
59054;SDS011;44845;51.444;7.460;2023-08-08T03:35:45;4.53;;;1.33;;
59054;SDS011;44845;51.444;7.460;2023-08-08T03:38:10;3.78;;;1.77;;
59054;SDS011;44845;51.444;7.460;2023-08-08T03:40:35;4.05;;;1.80;;
59054;SDS011;44845;51.444;7.460;2023-08-08T03:43:01;3.45;;;1.10;;
59054;SDS011;44845;51.444;7.460;2023-08-08T03:45:26;6.90;;;1.60;;
59054;SDS011;44845;51.444;7.460;2023-08-08T03:47:52;3.97;;;1.58;;
59054;SDS011;44845;51.444;7.460;2023-08-08T03:50:17;4.78;;;1.33;;
59054;SDS011;44845;51.444;7.460;2023-08-08T03:52:43;7.13;;;1.90;;
59054;SDS011;44845;51.444;7.460;2023-08-08T03:55:08;4.53;;;1.70;;
59054;SDS011;44845;51.444;7.460;2023-08-08T03:57:34;5.25;;;1.30;;
59054;SDS011;44845;51.444;7.460;2023-08-08T03:59:59;8.45;;;1.60;;
59054;SDS011;44845;51.444;7.460;2023-08-08T04:02:25;2.53;;;1.70;;
59054;SDS011;44845;51.444;7.460;2023-08-08T04:04:50;4.97;;;1.92;;
59054;SDS011;44845;51.444;7.460;2023-08-08T04:07:16;3.88;;;2.08;;
59054;SDS011;44845;51.444;7.460;2023-08-08T04:09:41;3.85;;;1.92;;
59054;SDS011;44845;51.444;7.460;2023-08-08T04:12:07;6.20;;;2.00;;
59054;SDS011;44845;51.444;7.460;2023-08-08T04:14:33;8.32;;;2.17;;
59054;SDS011;44845;51.444;7.460;2023-08-08T04:16:58;4.70;;;2.25;;
59054;SDS011;44845;51.444;7.460;2023-08-08T04:19:24;6.15;;;2.25;;
59054;SDS011;44845;51.444;7.460;2023-08-08T04:21:49;8.40;;;2.50;;
59054;SDS011;44845;51.444;7.460;2023-08-08T04:24:14;4.90;;;2.38;;
59054;SDS011;44845;51.444;7.460;2023-08-08T04:26:40;7.40;;;2.47;;
59054;SDS011;44845;51.444;7.460;2023-08-08T04:29:05;8.25;;;2.70;;
59054;SDS011;44845;51.444;7.460;2023-08-08T04:31:31;4.20;;;2.50;;
59054;SDS011;44845;51.444;7.460;2023-08-08T04:33:56;4.68;;;2.70;;
59054;SDS011;44845;51.444;7.460;2023-08-08T04:36:25;6.57;;;2.50;;
59054;SDS011;44845;51.444;7.460;2023-08-08T04:38:51;6.10;;;3.00;;
59054;SDS011;44845;51.444;7.460;2023-08-08T04:41:16;7.13;;;3.00;;
59054;SDS011;44845;51.444;7.460;2023-08-08T04:43:41;7.20;;;2.85;;
59054;SDS011;44845;51.444;7.460;2023-08-08T04:46:07;3.85;;;2.40;;
59054;SDS011;44845;51.444;7.460;2023-08-08T04:48:32;5.55;;;3.00;;
59054;SDS011;44845;51.444;7.460;2023-08-08T04:50:58;4.38;;;2.53;;
59054;SDS011;44845;51.444;7.460;2023-08-08T04:53:23;8.10;;;3.03;;
59054;SDS011;44845;51.444;7.460;2023-08-08T04:55:48;4.90;;;3.05;;
59054;SDS011;44845;51.444;7.460;2023-08-08T04:58:14;11.20;;;3.03;;
59054;SDS011;44845;51.444;7.460;2023-08-08T05:00:39;8.90;;;3.50;;
59054;SDS011;44845;51.444;7.460;2023-08-08T05:03:04;4.38;;;2.63;;
59054;SDS011;44845;51.444;7.460;2023-08-08T05:05:30;8.25;;;3.22;;
59054;SDS011;44845;51.444;7.460;2023-08-08T05:07:55;8.18;;;3.05;;
59054;SDS011;44845;51.444;7.460;2023-08-08T05:10:20;5.35;;;2.92;;
59054;SDS011;44845;51.444;7.460;2023-08-08T05:12:46;8.75;;;3.50;;
59054;SDS011;44845;51.444;7.460;2023-08-08T05:15:11;9.10;;;3.40;;
59054;SDS011;44845;51.444;7.460;2023-08-08T05:17:37;6.75;;;3.80;;
59054;SDS011;44845;51.444;7.460;2023-08-08T05:20:02;7.82;;;3.50;;
59054;SDS011;44845;51.444;7.460;2023-08-08T05:22:28;10.40;;;3.75;;
59054;SDS011;44845;51.444;7.460;2023-08-08T05:24:54;8.38;;;3.75;;
59054;SDS011;44845;51.444;7.460;2023-08-08T05:27:19;7.35;;;4.13;;
59054;SDS011;44845;51.444;7.460;2023-08-08T05:29:44;8.45;;;4.70;;
59054;SDS011;44845;51.444;7.460;2023-08-08T05:32:10;7.05;;;4.05;;
59054;SDS011;44845;51.444;7.460;2023-08-08T05:34:35;11.40;;;5.00;;
59054;SDS011;44845;51.444;7.460;2023-08-08T05:37:01;10.90;;;4.60;;
59054;SDS011;44845;51.444;7.460;2023-08-08T05:39:26;12.63;;;4.78;;
59054;SDS011;44845;51.444;7.460;2023-08-08T05:41:52;8.80;;;5.05;;
59054;SDS011;44845;51.444;7.460;2023-08-08T05:44:17;10.30;;;4.70;;
59054;SDS011;44845;51.444;7.460;2023-08-08T05:46:43;9.70;;;4.72;;
59054;SDS011;44845;51.444;7.460;2023-08-08T05:49:08;19.48;;;5.38;;
59054;SDS011;44845;51.444;7.460;2023-08-08T05:51:33;11.40;;;5.60;;
59054;SDS011;44845;51.444;7.460;2023-08-08T05:53:59;9.88;;;5.78;;
59054;SDS011;44845;51.444;7.460;2023-08-08T05:56:24;14.00;;;5.50;;
59054;SDS011;44845;51.444;7.460;2023-08-08T05:58:50;14.35;;;5.80;;
59054;SDS011;44845;51.444;7.460;2023-08-08T06:01:15;18.25;;;6.40;;
59054;SDS011;44845;51.444;7.460;2023-08-08T06:03:40;11.55;;;5.65;;
59054;SDS011;44845;51.444;7.460;2023-08-08T06:06:07;13.93;;;5.65;;
59054;SDS011;44845;51.444;7.460;2023-08-08T06:08:32;11.20;;;5.63;;
59054;SDS011;44845;51.444;7.460;2023-08-08T06:10:58;13.95;;;6.43;;
59054;SDS011;44845;51.444;7.460;2023-08-08T06:13:23;13.23;;;7.35;;
59054;SDS011;44845;51.444;7.460;2023-08-08T06:15:49;17.45;;;6.40;;
59054;SDS011;44845;51.444;7.460;2023-08-08T06:18:14;15.40;;;6.18;;
59054;SDS011;44845;51.444;7.460;2023-08-08T06:20:40;13.02;;;6.18;;
59054;SDS011;44845;51.444;7.460;2023-08-08T06:23:06;13.40;;;6.57;;
59054;SDS011;44845;51.444;7.460;2023-08-08T06:25:31;18.10;;;6.97;;
59054;SDS011;44845;51.444;7.460;2023-08-08T06:27:56;10.60;;;5.80;;
59054;SDS011;44845;51.444;7.460;2023-08-08T06:30:22;13.55;;;6.70;;
59054;SDS011;44845;51.444;7.460;2023-08-08T06:32:47;15.13;;;6.68;;
59054;SDS011;44845;51.444;7.460;2023-08-08T06:35:13;16.02;;;6.03;;
59054;SDS011;44845;51.444;7.460;2023-08-08T06:37:41;12.77;;;6.38;;
59054;SDS011;44845;51.444;7.460;2023-08-08T06:40:08;18.35;;;6.75;;
59054;SDS011;44845;51.444;7.460;2023-08-08T06:42:34;12.57;;;6.03;;
59054;SDS011;44845;51.444;7.460;2023-08-08T06:44:59;19.25;;;6.78;;
59054;SDS011;44845;51.444;7.460;2023-08-08T06:47:25;16.38;;;6.82;;
59054;SDS011;44845;51.444;7.460;2023-08-08T06:49:50;16.00;;;6.97;;
59054;SDS011;44845;51.444;7.460;2023-08-08T06:52:15;16.05;;;7.47;;
59054;SDS011;44845;51.444;7.460;2023-08-08T06:54:41;11.85;;;6.60;;
59054;SDS011;44845;51.444;7.460;2023-08-08T06:57:06;15.32;;;7.05;;
59054;SDS011;44845;51.444;7.460;2023-08-08T06:59:32;17.35;;;7.18;;
59054;SDS011;44845;51.444;7.460;2023-08-08T07:01:57;14.77;;;7.15;;
59054;SDS011;44845;51.444;7.460;2023-08-08T07:04:23;18.40;;;7.15;;
59054;SDS011;44845;51.444;7.460;2023-08-08T07:06:48;15.63;;;7.25;;
59054;SDS011;44845;51.444;7.460;2023-08-08T07:09:14;17.58;;;7.10;;
59054;SDS011;44845;51.444;7.460;2023-08-08T07:11:39;13.60;;;7.20;;
59054;SDS011;44845;51.444;7.460;2023-08-08T07:14:06;20.02;;;7.15;;
59054;SDS011;44845;51.444;7.460;2023-08-08T07:16:31;11.55;;;6.88;;
59054;SDS011;44845;51.444;7.460;2023-08-08T07:18:56;15.52;;;6.85;;
59054;SDS011;44845;51.444;7.460;2023-08-08T07:21:22;10.57;;;7.25;;
59054;SDS011;44845;51.444;7.460;2023-08-08T07:23:47;14.88;;;7.15;;
59054;SDS011;44845;51.444;7.460;2023-08-08T07:26:12;14.77;;;7.05;;
59054;SDS011;44845;51.444;7.460;2023-08-08T07:28:38;12.52;;;6.60;;
59054;SDS011;44845;51.444;7.460;2023-08-08T07:31:03;17.20;;;7.18;;
59054;SDS011;44845;51.444;7.460;2023-08-08T07:33:29;12.70;;;6.82;;
59054;SDS011;44845;51.444;7.460;2023-08-08T07:35:54;16.65;;;6.88;;
59054;SDS011;44845;51.444;7.460;2023-08-08T07:38:20;12.95;;;6.90;;
59054;SDS011;44845;51.444;7.460;2023-08-08T07:40:45;15.10;;;7.65;;
59054;SDS011;44845;51.444;7.460;2023-08-08T07:43:11;16.25;;;7.43;;
59054;SDS011;44845;51.444;7.460;2023-08-08T07:45:36;11.77;;;6.60;;
59054;SDS011;44845;51.444;7.460;2023-08-08T07:48:02;10.25;;;6.47;;
59054;SDS011;44845;51.444;7.460;2023-08-08T07:50:28;14.60;;;6.28;;
59054;SDS011;44845;51.444;7.460;2023-08-08T07:52:53;10.95;;;6.15;;
59054;SDS011;44845;51.444;7.460;2023-08-08T07:55:18;10.20;;;6.10;;
59054;SDS011;44845;51.444;7.460;2023-08-08T07:57:44;11.40;;;6.20;;
59054;SDS011;44845;51.444;7.460;2023-08-08T08:00:10;13.75;;;5.63;;
59054;SDS011;44845;51.444;7.460;2023-08-08T08:02:39;9.57;;;5.28;;
59054;SDS011;44845;51.444;7.460;2023-08-08T08:05:07;15.93;;;5.55;;
59054;SDS011;44845;51.444;7.460;2023-08-08T08:07:36;10.93;;;5.63;;
59054;SDS011;44845;51.444;7.460;2023-08-08T08:10:03;9.00;;;4.80;;
59054;SDS011;44845;51.444;7.460;2023-08-08T08:12:30;13.82;;;5.35;;
59054;SDS011;44845;51.444;7.460;2023-08-08T08:14:56;13.07;;;4.80;;
59054;SDS011;44845;51.444;7.460;2023-08-08T08:17:22;12.80;;;4.47;;
59054;SDS011;44845;51.444;7.460;2023-08-08T08:19:48;11.60;;;4.68;;
59054;SDS011;44845;51.444;7.460;2023-08-08T08:22:14;6.75;;;3.95;;
59054;SDS011;44845;51.444;7.460;2023-08-08T08:27:10;9.00;;;3.65;;
59054;SDS011;44845;51.444;7.460;2023-08-08T08:29:35;8.57;;;3.30;;
59054;SDS011;44845;51.444;7.460;2023-08-08T08:32:01;9.52;;;3.40;;
59054;SDS011;44845;51.444;7.460;2023-08-08T08:34:26;11.73;;;4.22;;
59054;SDS011;44845;51.444;7.460;2023-08-08T08:36:51;8.60;;;3.55;;
59054;SDS011;44845;51.444;7.460;2023-08-08T08:39:17;11.32;;;3.92;;
59054;SDS011;44845;51.444;7.460;2023-08-08T08:41:42;9.18;;;3.40;;
59054;SDS011;44845;51.444;7.460;2023-08-08T08:44:13;8.57;;;3.30;;
59054;SDS011;44845;51.444;7.460;2023-08-08T08:46:41;6.05;;;2.90;;
59054;SDS011;44845;51.444;7.460;2023-08-08T08:49:07;11.35;;;3.15;;
59054;SDS011;44845;51.444;7.460;2023-08-08T08:51:35;9.48;;;2.88;;
59054;SDS011;44845;51.444;7.460;2023-08-08T08:54:01;8.32;;;3.20;;
59054;SDS011;44845;51.444;7.460;2023-08-08T08:56:27;6.38;;;3.13;;
59054;SDS011;44845;51.444;7.460;2023-08-08T08:58:53;6.38;;;2.75;;
59054;SDS011;44845;51.444;7.460;2023-08-08T09:01:19;8.13;;;3.10;;
59054;SDS011;44845;51.444;7.460;2023-08-08T09:03:47;6.03;;;2.85;;
59054;SDS011;44845;51.444;7.460;2023-08-08T09:06:12;10.23;;;3.30;;
59054;SDS011;44845;51.444;7.460;2023-08-08T09:08:39;9.82;;;2.38;;
59054;SDS011;44845;51.444;7.460;2023-08-08T09:11:04;7.18;;;2.60;;
59054;SDS011;44845;51.444;7.460;2023-08-08T09:13:36;5.88;;;2.30;;
59054;SDS011;44845;51.444;7.460;2023-08-08T09:16:07;4.50;;;1.80;;
59054;SDS011;44845;51.444;7.460;2023-08-08T09:18:33;10.13;;;1.98;;
59054;SDS011;44845;51.444;7.460;2023-08-08T09:20:59;6.95;;;2.10;;
59054;SDS011;44845;51.444;7.460;2023-08-08T09:23:25;3.13;;;1.88;;
59054;SDS011;44845;51.444;7.460;2023-08-08T09:25:50;6.50;;;2.08;;
59054;SDS011;44845;51.444;7.460;2023-08-08T09:28:16;3.58;;;1.80;;
59054;SDS011;44845;51.444;7.460;2023-08-08T09:30:42;6.10;;;1.65;;
59054;SDS011;44845;51.444;7.460;2023-08-08T09:33:08;6.28;;;1.80;;
59054;SDS011;44845;51.444;7.460;2023-08-08T09:35:33;10.30;;;1.98;;
59054;SDS011;44845;51.444;7.460;2023-08-08T09:37:58;6.35;;;1.75;;
59054;SDS011;44845;51.444;7.460;2023-08-08T09:40:24;5.60;;;1.85;;
59054;SDS011;44845;51.444;7.460;2023-08-08T09:42:52;6.28;;;1.60;;
59054;SDS011;44845;51.444;7.460;2023-08-08T09:45:21;2.83;;;1.65;;
59054;SDS011;44845;51.444;7.460;2023-08-08T09:47:48;7.85;;;2.22;;
59054;SDS011;44845;51.444;7.460;2023-08-08T09:50:15;4.75;;;1.80;;
59054;SDS011;44845;51.444;7.460;2023-08-08T09:52:40;6.45;;;1.98;;
59054;SDS011;44845;51.444;7.460;2023-08-08T09:55:08;7.28;;;2.10;;
59054;SDS011;44845;51.444;7.460;2023-08-08T09:57:35;4.90;;;1.50;;
59054;SDS011;44845;51.444;7.460;2023-08-08T10:00:06;8.05;;;1.75;;
59054;SDS011;44845;51.444;7.460;2023-08-08T10:02:40;3.92;;;1.73;;
59054;SDS011;44845;51.444;7.460;2023-08-08T10:05:07;4.43;;;1.73;;
59054;SDS011;44845;51.444;7.460;2023-08-08T10:07:32;8.65;;;1.70;;
59054;SDS011;44845;51.444;7.460;2023-08-08T10:09:58;6.97;;;1.98;;
59054;SDS011;44845;51.444;7.460;2023-08-08T10:12:24;6.70;;;1.52;;
59054;SDS011;44845;51.444;7.460;2023-08-08T10:14:51;6.50;;;1.88;;
59054;SDS011;44845;51.444;7.460;2023-08-08T10:17:17;5.43;;;1.63;;
59054;SDS011;44845;51.444;7.460;2023-08-08T10:19:55;4.18;;;1.42;;
59054;SDS011;44845;51.444;7.460;2023-08-08T10:22:22;5.63;;;1.60;;
59054;SDS011;44845;51.444;7.460;2023-08-08T10:24:51;3.90;;;1.45;;
59054;SDS011;44845;51.444;7.460;2023-08-08T10:27:27;5.53;;;2.03;;
59054;SDS011;44845;51.444;7.460;2023-08-08T10:29:54;7.57;;;1.80;;
59054;SDS011;44845;51.444;7.460;2023-08-08T10:32:25;4.03;;;1.50;;
59054;SDS011;44845;51.444;7.460;2023-08-08T10:34:50;5.32;;;2.55;;
59054;SDS011;44845;51.444;7.460;2023-08-08T10:37:20;12.43;;;7.70;;
59054;SDS011;44845;51.444;7.460;2023-08-08T10:39:53;4.07;;;2.10;;
59054;SDS011;44845;51.444;7.460;2023-08-08T10:42:20;5.10;;;1.70;;
59054;SDS011;44845;51.444;7.460;2023-08-08T10:44:57;5.70;;;1.90;;
59054;SDS011;44845;51.444;7.460;2023-08-08T10:47:36;7.15;;;2.47;;
59054;SDS011;44845;51.444;7.460;2023-08-08T10:55:24;7.50;;;3.60;;
59054;SDS011;44845;51.444;7.460;2023-08-08T11:00:28;5.78;;;1.95;;
59054;SDS011;44845;51.444;7.460;2023-08-08T11:02:55;5.15;;;1.77;;
59054;SDS011;44845;51.444;7.460;2023-08-08T11:05:22;4.80;;;1.63;;
59054;SDS011;44845;51.444;7.460;2023-08-08T11:07:48;3.75;;;1.38;;
59054;SDS011;44845;51.444;7.460;2023-08-08T11:10:14;2.47;;;1.30;;
59054;SDS011;44845;51.444;7.460;2023-08-08T11:12:39;8.35;;;1.48;;
59054;SDS011;44845;51.444;7.460;2023-08-08T11:15:05;8.65;;;1.50;;
59054;SDS011;44845;51.444;7.460;2023-08-08T11:17:31;8.35;;;2.28;;
59054;SDS011;44845;51.444;7.460;2023-08-08T11:19:57;7.32;;;1.80;;
59054;SDS011;44845;51.444;7.460;2023-08-08T11:22:22;5.30;;;1.50;;
59054;SDS011;44845;51.444;7.460;2023-08-08T11:24:48;7.93;;;1.70;;
59054;SDS011;44845;51.444;7.460;2023-08-08T11:27:15;4.68;;;1.65;;
59054;SDS011;44845;51.444;7.460;2023-08-08T11:29:40;5.50;;;1.50;;
59054;SDS011;44845;51.444;7.460;2023-08-08T11:32:15;3.20;;;1.52;;
59054;SDS011;44845;51.444;7.460;2023-08-08T11:34:40;3.10;;;1.30;;
59054;SDS011;44845;51.444;7.460;2023-08-08T11:37:06;5.35;;;1.80;;
59054;SDS011;44845;51.444;7.460;2023-08-08T11:39:32;5.20;;;1.75;;
59054;SDS011;44845;51.444;7.460;2023-08-08T11:41:57;6.88;;;1.40;;
59054;SDS011;44845;51.444;7.460;2023-08-08T11:44:23;6.75;;;1.52;;
59054;SDS011;44845;51.444;7.460;2023-08-08T11:46:48;5.70;;;1.60;;
59054;SDS011;44845;51.444;7.460;2023-08-08T11:49:15;3.65;;;1.55;;
59054;SDS011;44845;51.444;7.460;2023-08-08T11:51:42;4.25;;;1.25;;
59054;SDS011;44845;51.444;7.460;2023-08-08T11:54:08;4.30;;;1.55;;
59054;SDS011;44845;51.444;7.460;2023-08-08T11:56:34;5.25;;;1.60;;
59054;SDS011;44845;51.444;7.460;2023-08-08T11:59:01;3.65;;;1.80;;
59054;SDS011;44845;51.444;7.460;2023-08-08T12:01:27;3.85;;;1.15;;
59054;SDS011;44845;51.444;7.460;2023-08-08T12:03:54;3.80;;;1.40;;
59054;SDS011;44845;51.444;7.460;2023-08-08T12:06:19;8.27;;;1.50;;
59054;SDS011;44845;51.444;7.460;2023-08-08T12:08:46;4.13;;;1.40;;
59054;SDS011;44845;51.444;7.460;2023-08-08T12:11:12;5.97;;;1.60;;
59054;SDS011;44845;51.444;7.460;2023-08-08T12:13:40;4.68;;;1.73;;
59054;SDS011;44845;51.444;7.460;2023-08-08T12:16:07;5.32;;;1.85;;
59054;SDS011;44845;51.444;7.460;2023-08-08T12:18:34;4.10;;;1.63;;
59054;SDS011;44845;51.444;7.460;2023-08-08T12:21:00;3.25;;;1.60;;
59054;SDS011;44845;51.444;7.460;2023-08-08T12:23:26;3.88;;;1.55;;
59054;SDS011;44845;51.444;7.460;2023-08-08T12:25:52;8.38;;;1.90;;
59054;SDS011;44845;51.444;7.460;2023-08-08T12:28:18;2.72;;;1.70;;
59054;SDS011;44845;51.444;7.460;2023-08-08T12:30:43;4.35;;;2.22;;
59054;SDS011;44845;51.444;7.460;2023-08-08T12:33:08;7.13;;;1.67;;
59054;SDS011;44845;51.444;7.460;2023-08-08T12:35:34;6.43;;;1.85;;
59054;SDS011;44845;51.444;7.460;2023-08-08T12:37:59;6.35;;;1.65;;
59054;SDS011;44845;51.444;7.460;2023-08-08T12:40:24;6.28;;;1.92;;
59054;SDS011;44845;51.444;7.460;2023-08-08T12:42:50;7.70;;;1.70;;
59054;SDS011;44845;51.444;7.460;2023-08-08T12:45:15;7.30;;;1.85;;
59054;SDS011;44845;51.444;7.460;2023-08-08T12:47:42;6.57;;;1.80;;
59054;SDS011;44845;51.444;7.460;2023-08-08T12:50:08;3.83;;;1.40;;
59054;SDS011;44845;51.444;7.460;2023-08-08T12:52:34;5.50;;;1.67;;
59054;SDS011;44845;51.444;7.460;2023-08-08T12:55:00;5.50;;;1.85;;
59054;SDS011;44845;51.444;7.460;2023-08-08T12:57:26;5.20;;;1.65;;
59054;SDS011;44845;51.444;7.460;2023-08-08T12:59:51;6.20;;;1.77;;
59054;SDS011;44845;51.444;7.460;2023-08-08T13:02:17;3.33;;;1.35;;
59054;SDS011;44845;51.444;7.460;2023-08-08T13:04:42;5.18;;;1.80;;
59054;SDS011;44845;51.444;7.460;2023-08-08T13:07:08;6.03;;;1.98;;
59054;SDS011;44845;51.444;7.460;2023-08-08T13:09:34;9.02;;;2.00;;
59054;SDS011;44845;51.444;7.460;2023-08-08T13:11:59;4.00;;;1.70;;
59054;SDS011;44845;51.444;7.460;2023-08-08T13:14:25;8.57;;;1.77;;
59054;SDS011;44845;51.444;7.460;2023-08-08T13:16:50;8.15;;;2.25;;
59054;SDS011;44845;51.444;7.460;2023-08-08T13:19:16;8.13;;;1.90;;
59054;SDS011;44845;51.444;7.460;2023-08-08T13:21:44;7.10;;;2.15;;
59054;SDS011;44845;51.444;7.460;2023-08-08T13:24:10;7.15;;;1.80;;
59054;SDS011;44845;51.444;7.460;2023-08-08T13:26:37;6.43;;;2.08;;
59054;SDS011;44845;51.444;7.460;2023-08-08T13:29:03;7.60;;;2.03;;
59054;SDS011;44845;51.444;7.460;2023-08-08T13:31:28;6.15;;;1.67;;
59054;SDS011;44845;51.444;7.460;2023-08-08T13:33:54;7.03;;;2.00;;
59054;SDS011;44845;51.444;7.460;2023-08-08T13:36:19;4.18;;;1.80;;
59054;SDS011;44845;51.444;7.460;2023-08-08T13:38:44;5.28;;;2.20;;
59054;SDS011;44845;51.444;7.460;2023-08-08T13:41:10;6.10;;;1.67;;
59054;SDS011;44845;51.444;7.460;2023-08-08T13:43:35;3.65;;;1.42;;
59054;SDS011;44845;51.444;7.460;2023-08-08T13:46:01;6.95;;;1.67;;
59054;SDS011;44845;51.444;7.460;2023-08-08T13:48:28;7.00;;;1.85;;
59054;SDS011;44845;51.444;7.460;2023-08-08T13:50:53;3.15;;;1.70;;
59054;SDS011;44845;51.444;7.460;2023-08-08T13:53:19;5.22;;;1.95;;
59054;SDS011;44845;51.444;7.460;2023-08-08T13:55:44;5.88;;;1.80;;
59054;SDS011;44845;51.444;7.460;2023-08-08T13:58:10;4.03;;;1.40;;
59054;SDS011;44845;51.444;7.460;2023-08-08T14:00:35;8.90;;;1.83;;
59054;SDS011;44845;51.444;7.460;2023-08-08T14:03:01;5.05;;;1.58;;
59054;SDS011;44845;51.444;7.460;2023-08-08T14:05:26;7.45;;;1.85;;
59054;SDS011;44845;51.444;7.460;2023-08-08T14:07:53;9.98;;;1.60;;
59054;SDS011;44845;51.444;7.460;2023-08-08T14:10:18;6.03;;;1.60;;
59054;SDS011;44845;51.444;7.460;2023-08-08T14:12:44;4.90;;;1.50;;
59054;SDS011;44845;51.444;7.460;2023-08-08T14:15:09;4.40;;;1.63;;
59054;SDS011;44845;51.444;7.460;2023-08-08T14:17:35;3.95;;;1.35;;
59054;SDS011;44845;51.444;7.460;2023-08-08T14:20:01;7.72;;;1.65;;
59054;SDS011;44845;51.444;7.460;2023-08-08T14:22:27;4.32;;;1.38;;
59054;SDS011;44845;51.444;7.460;2023-08-08T14:24:52;4.65;;;1.60;;
59054;SDS011;44845;51.444;7.460;2023-08-08T14:27:18;4.18;;;1.70;;
59054;SDS011;44845;51.444;7.460;2023-08-08T14:29:43;6.20;;;1.73;;
59054;SDS011;44845;51.444;7.460;2023-08-08T14:32:08;5.00;;;1.30;;
59054;SDS011;44845;51.444;7.460;2023-08-08T14:34:35;2.88;;;1.50;;
59054;SDS011;44845;51.444;7.460;2023-08-08T14:37:03;3.78;;;1.15;;
59054;SDS011;44845;51.444;7.460;2023-08-08T14:39:28;4.82;;;1.58;;
59054;SDS011;44845;51.444;7.460;2023-08-08T14:41:54;7.28;;;1.58;;
59054;SDS011;44845;51.444;7.460;2023-08-08T14:44:20;2.47;;;1.30;;
59054;SDS011;44845;51.444;7.460;2023-08-08T14:46:45;7.43;;;1.83;;
59054;SDS011;44845;51.444;7.460;2023-08-08T14:49:11;6.45;;;1.30;;
59054;SDS011;44845;51.444;7.460;2023-08-08T14:51:36;3.63;;;1.30;;